createdAt,value
2022-08-12T00:00:58.718Z,1.20
2022-08-12T00:02:02.724Z,1.60
2022-08-12T00:02:59.710Z,1.40
2022-08-12T00:03:58.679Z,1.60
2022-08-12T00:04:58.679Z,1.50
2022-08-12T00:06:05.075Z,1.60
2022-08-12T00:06:59.656Z,1.30
2022-08-12T00:07:58.649Z,1.40
2022-08-12T00:08:58.620Z,1.30
2022-08-12T00:09:58.620Z,1.40
2022-08-12T00:10:58.620Z,1.40
2022-08-12T00:11:59.599Z,1.50
2022-08-12T00:12:58.582Z,1.30
2022-08-12T00:13:58.580Z,1.50
2022-08-12T00:14:58.564Z,1.10
2022-08-12T00:15:58.571Z,1.20
2022-08-12T00:16:58.559Z,1.50
2022-08-12T00:17:58.532Z,1.70
2022-08-12T00:18:58.513Z,1.40
2022-08-12T00:19:58.515Z,1.20
2022-08-12T00:20:58.511Z,1.40
2022-08-12T00:21:58.485Z,1.30
2022-08-12T00:22:59.750Z,1.40
2022-08-12T00:23:58.472Z,1.40
2022-08-12T00:24:58.443Z,1.40
2022-08-12T00:26:21.875Z,1.30
2022-08-12T00:26:59.432Z,1.50
2022-08-12T00:27:58.444Z,1.20
2022-08-12T00:28:58.405Z,1.30
2022-08-12T00:29:58.415Z,1.40
2022-08-12T00:30:58.383Z,1.40
2022-08-12T00:31:58.374Z,1.50
2022-08-12T00:32:58.849Z,1.40
2022-08-12T00:33:59.386Z,1.20
2022-08-12T00:34:58.341Z,1.40
2022-08-12T00:35:58.348Z,1.50
2022-08-12T00:37:02.677Z,1.40
2022-08-12T00:37:59.314Z,1.20
2022-08-12T00:38:58.295Z,1.40
2022-08-12T00:39:58.347Z,1.30
2022-08-12T00:40:58.305Z,1.30
2022-08-12T00:41:58.266Z,1.50
2022-08-12T00:42:58.252Z,1.50
2022-08-12T00:43:58.237Z,1.70
2022-08-12T00:44:58.225Z,1.70
2022-08-12T00:45:58.238Z,1.90
2022-08-12T00:46:58.217Z,1.70
2022-08-12T00:47:58.207Z,1.80
2022-08-12T00:48:58.203Z,1.50
2022-08-12T00:49:58.204Z,1.70
2022-08-12T00:50:58.188Z,1.50
2022-08-12T00:51:58.172Z,1.70
2022-08-12T00:52:58.137Z,1.60
2022-08-12T00:53:58.163Z,1.50
2022-08-12T00:54:58.134Z,1.70
2022-08-12T00:55:58.138Z,1.90
2022-08-12T00:56:58.107Z,1.80
2022-08-12T00:57:58.090Z,1.70
2022-08-12T00:58:58.098Z,1.50
2022-08-12T00:59:58.070Z,1.80
2022-08-12T01:00:58.061Z,1.60
2022-08-12T01:02:02.481Z,1.60
2022-08-12T01:02:59.032Z,1.90
2022-08-12T01:03:58.579Z,1.60
2022-08-12T01:04:58.011Z,1.60
2022-08-12T01:05:58.022Z,1.70
2022-08-12T01:06:57.991Z,1.70
2022-08-12T01:07:57.987Z,1.50
2022-08-12T01:08:57.981Z,1.50
2022-08-12T01:09:57.967Z,1.80
2022-08-12T01:10:57.972Z,1.60
2022-08-12T01:11:57.962Z,1.60
2022-08-12T01:13:18.199Z,1.90
2022-08-12T01:13:58.914Z,1.50
2022-08-12T01:14:57.902Z,1.60
2022-08-12T01:15:57.901Z,1.30
2022-08-12T01:16:57.913Z,1.50
2022-08-12T01:17:57.873Z,1.30
2022-08-12T01:18:57.873Z,1.40
2022-08-12T01:19:57.852Z,1.60
2022-08-12T01:20:57.836Z,1.80
2022-08-12T01:21:57.867Z,1.60
2022-08-12T01:22:57.813Z,1.60
2022-08-12T01:23:57.804Z,1.50
2022-08-12T01:24:57.794Z,1.60
2022-08-12T01:25:57.787Z,1.50
2022-08-12T01:26:57.767Z,1.70
2022-08-12T01:27:57.786Z,1.60
2022-08-12T01:28:58.639Z,1.30
2022-08-12T01:29:57.742Z,1.30
2022-08-12T01:30:57.724Z,1.60
2022-08-12T01:31:57.714Z,1.80
2022-08-12T01:32:57.734Z,1.60
2022-08-12T01:33:57.704Z,1.50
2022-08-12T01:34:57.685Z,1.30
2022-08-12T01:36:07.895Z,1.50
2022-08-12T01:36:58.660Z,1.80
2022-08-12T01:37:57.659Z,1.70
2022-08-12T01:38:57.663Z,1.80
2022-08-12T01:40:33.424Z,1.60
2022-08-12T01:40:58.688Z,1.80
2022-08-12T01:41:57.606Z,1.80
2022-08-12T01:42:57.628Z,1.60
2022-08-12T01:43:57.581Z,1.90
2022-08-12T01:44:57.568Z,1.80
2022-08-12T01:45:57.743Z,1.70
2022-08-12T01:46:57.546Z,1.30
2022-08-12T01:47:57.559Z,1.60
2022-08-12T01:48:57.544Z,1.90
2022-08-12T01:49:57.524Z,1.60
2022-08-12T01:51:00.448Z,1.70
2022-08-12T01:52:20.548Z,1.50
2022-08-12T01:52:58.506Z,1.80
2022-08-12T01:53:57.486Z,1.80
2022-08-12T01:54:57.460Z,1.70
2022-08-12T01:55:57.458Z,1.70
2022-08-12T01:56:57.446Z,1.90
2022-08-12T01:58:01.101Z,1.80
2022-08-12T01:58:57.439Z,1.90
2022-08-12T01:59:57.411Z,1.70
2022-08-12T02:00:57.442Z,1.70
2022-08-12T02:01:57.450Z,2.00
2022-08-12T02:02:57.380Z,1.70
2022-08-12T02:03:57.389Z,1.70
2022-08-12T02:04:57.351Z,1.90
2022-08-12T02:05:57.343Z,2.00
2022-08-12T02:06:57.332Z,2.00
2022-08-12T02:07:57.324Z,1.60
2022-08-12T02:08:57.333Z,1.80
2022-08-12T02:09:57.301Z,1.80
2022-08-12T02:10:57.281Z,1.80
2022-08-12T02:11:57.273Z,1.50
2022-08-12T02:12:57.263Z,1.70
2022-08-12T02:13:57.286Z,1.70
2022-08-12T02:14:57.250Z,1.80
2022-08-12T02:15:57.234Z,2.00
2022-08-12T02:16:57.222Z,1.70
2022-08-12T02:17:57.217Z,1.90
2022-08-12T02:18:57.194Z,1.70
2022-08-12T02:19:57.204Z,1.60
2022-08-12T02:20:57.173Z,2.10
2022-08-12T02:21:57.169Z,1.90
2022-08-12T02:22:57.162Z,1.80
2022-08-12T02:23:57.176Z,1.90
2022-08-12T02:24:57.135Z,1.60
2022-08-12T02:25:57.124Z,1.70
2022-08-12T02:26:57.106Z,1.80
2022-08-12T02:27:57.104Z,2.10
2022-08-12T02:28:57.085Z,1.70
2022-08-12T02:29:57.105Z,1.60
2022-08-12T02:30:57.064Z,1.60
2022-08-12T02:31:57.054Z,1.60
2022-08-12T02:32:57.043Z,1.70
2022-08-12T02:33:57.036Z,1.90
2022-08-12T02:34:57.018Z,1.70
2022-08-12T02:35:57.044Z,1.40
2022-08-12T02:37:00.219Z,1.80
2022-08-12T02:37:57.988Z,1.80
2022-08-12T02:38:56.975Z,1.80
2022-08-12T02:39:57.010Z,1.60
2022-08-12T02:40:56.978Z,1.80
2022-08-12T02:41:56.976Z,1.90
2022-08-12T02:42:56.936Z,1.80
2022-08-12T02:43:56.926Z,1.80
2022-08-12T02:44:56.908Z,1.70
2022-08-12T02:45:56.931Z,1.60
2022-08-12T02:46:56.888Z,1.70
2022-08-12T02:48:00.225Z,1.60
2022-08-12T02:48:56.866Z,1.70
2022-08-12T02:49:56.859Z,1.60
2022-08-12T02:50:56.850Z,1.80
2022-08-12T02:51:56.859Z,1.50
2022-08-12T02:52:56.820Z,1.70
2022-08-12T02:54:04.798Z,1.60
2022-08-12T02:54:57.800Z,1.40
2022-08-12T02:55:56.792Z,1.80
2022-08-12T02:56:56.801Z,1.70
2022-08-12T02:57:56.771Z,1.80
2022-08-12T02:58:56.760Z,1.60
2022-08-12T02:59:56.795Z,2.20
2022-08-12T03:00:56.886Z,1.50
2022-08-12T03:01:56.752Z,1.60
2022-08-12T03:02:56.718Z,1.50
2022-08-12T03:03:56.710Z,1.70
2022-08-12T03:04:56.711Z,1.80
2022-08-12T03:05:56.703Z,1.70
2022-08-12T03:06:56.695Z,1.70
2022-08-12T03:07:59.963Z,1.70
2022-08-12T03:08:56.650Z,1.80
2022-08-12T03:10:04.244Z,1.80
2022-08-12T03:10:57.622Z,1.80
2022-08-12T03:11:56.623Z,1.60
2022-08-12T03:12:56.633Z,1.70
2022-08-12T03:13:56.594Z,1.90
2022-08-12T03:14:56.583Z,1.90
2022-08-12T03:15:56.572Z,2.20
2022-08-12T03:16:56.566Z,1.60
2022-08-12T03:18:26.058Z,1.90
2022-08-12T03:18:57.532Z,1.70
2022-08-12T03:20:10.146Z,1.80
2022-08-12T03:20:57.525Z,1.90
2022-08-12T03:22:08.640Z,1.70
2022-08-12T03:22:57.494Z,2.30
2022-08-12T03:23:56.505Z,1.80
2022-08-12T03:24:56.472Z,1.70
2022-08-12T03:25:56.464Z,1.70
2022-08-12T03:27:00.492Z,1.70
2022-08-12T03:27:56.452Z,2.00
2022-08-12T03:28:56.446Z,2.00
2022-08-12T03:29:56.446Z,2.00
2022-08-12T03:30:56.955Z,2.00
2022-08-12T03:31:56.396Z,1.70
2022-08-12T03:32:56.377Z,2.00
2022-08-12T03:34:01.255Z,2.00
2022-08-12T03:34:57.366Z,2.10
2022-08-12T03:35:56.358Z,1.90
2022-08-12T03:36:56.336Z,1.90
2022-08-12T03:37:56.328Z,1.80
2022-08-12T03:38:56.316Z,1.70
2022-08-12T03:39:56.361Z,2.00
2022-08-12T03:40:56.298Z,1.90
2022-08-12T03:41:58.152Z,1.90
2022-08-12T03:42:56.277Z,1.80
2022-08-12T03:43:56.270Z,1.90
2022-08-12T03:44:56.278Z,1.80
2022-08-12T03:45:56.869Z,1.80
2022-08-12T03:46:56.237Z,1.80
2022-08-12T03:47:56.227Z,1.80
2022-08-12T03:48:56.209Z,1.50
2022-08-12T03:49:56.197Z,1.70
2022-08-12T03:50:56.207Z,1.70
2022-08-12T03:51:56.179Z,2.10
2022-08-12T03:52:56.168Z,2.00
2022-08-12T03:53:56.149Z,2.10
2022-08-12T03:54:56.140Z,1.90
2022-08-12T03:55:56.172Z,2.00
2022-08-12T03:56:56.121Z,1.90
2022-08-12T03:57:56.116Z,2.10
2022-08-12T03:58:56.097Z,2.10
2022-08-12T03:59:56.090Z,1.90
2022-08-12T04:00:56.155Z,1.90
2022-08-12T04:01:56.092Z,2.10
2022-08-12T04:02:56.052Z,2.00
2022-08-12T04:03:56.041Z,2.00
2022-08-12T04:04:56.041Z,2.10
2022-08-12T04:05:56.866Z,2.00
2022-08-12T04:06:56.049Z,2.00
2022-08-12T04:07:58.384Z,2.00
2022-08-12T04:08:55.992Z,2.00
2022-08-12T04:09:55.989Z,2.20
2022-08-12T04:10:55.972Z,2.20
2022-08-12T04:11:55.962Z,2.00
2022-08-12T04:12:55.972Z,1.90
2022-08-12T04:13:55.933Z,1.80
2022-08-12T04:14:55.944Z,1.70
2022-08-12T04:15:55.912Z,1.80
2022-08-12T04:16:55.903Z,2.20
2022-08-12T04:18:07.446Z,1.90
2022-08-12T04:18:56.878Z,2.10
2022-08-12T04:19:55.872Z,1.90
2022-08-12T04:20:55.886Z,1.90
2022-08-12T04:22:01.861Z,2.20
2022-08-12T04:22:56.835Z,1.90
2022-08-12T04:23:55.829Z,2.00
2022-08-12T04:24:55.805Z,1.60
2022-08-12T04:25:55.810Z,2.00
2022-08-12T04:26:55.815Z,1.90
2022-08-12T04:27:55.777Z,2.20
2022-08-12T04:28:55.772Z,2.10
2022-08-12T04:30:29.101Z,2.00
2022-08-12T04:30:56.767Z,2.00
2022-08-12T04:31:55.760Z,2.20
2022-08-12T04:32:55.735Z,2.40
2022-08-12T04:33:55.725Z,2.00
2022-08-12T04:34:55.705Z,1.80
2022-08-12T04:35:55.696Z,2.10
2022-08-12T04:36:55.706Z,1.90
2022-08-12T04:37:59.908Z,1.80
2022-08-12T04:38:59.688Z,2.20
2022-08-12T04:39:55.682Z,1.90
2022-08-12T04:40:55.658Z,1.60
2022-08-12T04:41:58.173Z,2.10
2022-08-12T04:42:55.619Z,2.30
2022-08-12T04:44:02.166Z,2.10
2022-08-12T04:44:56.596Z,2.00
2022-08-12T04:46:02.667Z,1.80
2022-08-12T04:46:55.572Z,2.00
2022-08-12T04:47:55.560Z,1.90
2022-08-12T04:48:55.551Z,1.70
2022-08-12T04:49:55.538Z,1.90
2022-08-12T04:50:55.558Z,2.10
2022-08-12T04:51:59.401Z,2.00
2022-08-12T04:52:55.508Z,1.70
2022-08-12T04:53:55.491Z,1.80
2022-08-12T04:54:55.488Z,2.00
2022-08-12T04:55:55.472Z,1.90
2022-08-12T04:57:04.013Z,2.20
2022-08-12T04:57:56.456Z,2.20
2022-08-12T04:58:55.439Z,2.00
2022-08-12T04:59:55.432Z,2.10
2022-08-12T05:00:55.442Z,2.30
2022-08-12T05:01:55.438Z,2.20
2022-08-12T05:02:55.523Z,1.80
2022-08-12T05:03:55.402Z,1.80
2022-08-12T05:04:55.374Z,1.70
2022-08-12T05:05:55.382Z,2.10
2022-08-12T05:06:55.351Z,2.20
2022-08-12T05:07:55.361Z,2.00
2022-08-12T05:08:55.332Z,2.20
2022-08-12T05:10:02.152Z,2.10
2022-08-12T05:10:56.344Z,1.90
2022-08-12T05:11:55.303Z,2.10
2022-08-12T05:12:55.284Z,1.90
2022-08-12T05:13:55.303Z,2.30
2022-08-12T05:14:55.263Z,2.20
2022-08-12T05:16:04.571Z,2.40
2022-08-12T05:16:56.250Z,2.40
2022-08-12T05:17:55.229Z,2.30
2022-08-12T05:18:55.223Z,2.40
2022-08-12T05:19:57.201Z,2.10
2022-08-12T05:20:55.203Z,2.30
2022-08-12T05:21:55.275Z,2.20
2022-08-12T05:22:57.505Z,2.30
2022-08-12T05:23:55.166Z,2.00
2022-08-12T05:24:55.155Z,2.50
2022-08-12T05:25:55.164Z,2.10
2022-08-12T05:26:55.132Z,2.30
2022-08-12T05:27:55.126Z,2.20
2022-08-12T05:28:55.141Z,2.00
2022-08-12T05:30:08.227Z,2.10
2022-08-12T05:30:56.086Z,2.10
2022-08-12T05:31:55.096Z,2.50
2022-08-12T05:32:55.070Z,2.10
2022-08-12T05:33:55.075Z,2.30
2022-08-12T05:34:55.049Z,2.50
2022-08-12T05:35:55.037Z,2.50
2022-08-12T05:36:55.040Z,2.40
2022-08-12T05:37:55.009Z,2.10
2022-08-12T05:38:55.019Z,2.70
2022-08-12T05:39:55.037Z,2.60
2022-08-12T05:40:54.982Z,2.50
2022-08-12T05:41:54.987Z,2.50
2022-08-12T05:42:54.957Z,3.00
2022-08-12T05:43:54.948Z,2.80
2022-08-12T05:44:54.938Z,2.70
2022-08-12T05:45:54.918Z,2.90
2022-08-12T05:46:54.940Z,2.50
2022-08-12T05:47:54.899Z,2.70
2022-08-12T05:48:54.908Z,2.80
2022-08-12T05:49:54.879Z,3.00
2022-08-12T05:50:54.869Z,2.70
2022-08-12T05:51:54.879Z,2.50
2022-08-12T05:52:54.848Z,2.90
2022-08-12T05:53:54.839Z,2.80
2022-08-12T05:54:57.914Z,2.80
2022-08-12T05:55:54.819Z,2.80
2022-08-12T05:56:54.802Z,3.20
2022-08-12T05:57:54.791Z,3.30
2022-08-12T05:58:54.787Z,3.30
2022-08-12T05:59:54.791Z,3.50
2022-08-12T06:00:54.766Z,2.80
2022-08-12T06:02:12.372Z,2.80
2022-08-12T06:02:55.797Z,3.10
2022-08-12T06:03:54.731Z,2.90
2022-08-12T06:04:54.740Z,3.10
2022-08-12T06:05:55.889Z,3.00
2022-08-12T06:06:54.694Z,3.00
2022-08-12T06:08:02.035Z,2.70
2022-08-12T06:08:55.673Z,3.00
2022-08-12T06:09:54.682Z,3.20
2022-08-12T06:10:54.673Z,3.10
2022-08-12T06:12:05.051Z,3.10
2022-08-12T06:12:55.634Z,2.90
2022-08-12T06:13:54.802Z,2.80
2022-08-12T06:14:54.603Z,3.10
2022-08-12T06:15:54.614Z,3.00
2022-08-12T06:16:54.584Z,2.50
2022-08-12T06:17:54.574Z,2.70
2022-08-12T06:18:54.566Z,2.60
2022-08-12T06:20:27.658Z,2.50
2022-08-12T06:20:55.576Z,2.10
2022-08-12T06:21:54.526Z,2.30
2022-08-12T06:22:54.631Z,2.60
2022-08-12T06:23:54.506Z,2.50
2022-08-12T06:24:54.504Z,2.70
2022-08-12T06:25:54.486Z,2.10
2022-08-12T06:26:54.498Z,2.30
2022-08-12T06:28:07.552Z,2.40
2022-08-12T06:28:55.525Z,2.10
2022-08-12T06:30:09.883Z,2.50
2022-08-12T06:31:24.192Z,2.40
2022-08-12T06:31:55.439Z,2.10
2022-08-12T06:32:58.521Z,2.40
2022-08-12T06:34:52.968Z,2.20
2022-08-12T06:35:26.021Z,2.50
2022-08-12T06:35:57.699Z,2.40
2022-08-12T06:36:54.368Z,2.70
2022-08-12T06:37:56.961Z,2.50
2022-08-12T06:38:54.342Z,2.00
2022-08-12T06:39:54.393Z,2.60
2022-08-12T06:40:54.322Z,2.10
2022-08-12T06:42:04.987Z,2.50
2022-08-12T06:42:55.322Z,2.20
2022-08-12T06:44:04.451Z,2.30
2022-08-12T06:44:55.277Z,2.30
2022-08-12T06:45:54.293Z,2.50
2022-08-12T06:46:54.259Z,2.30
2022-08-12T06:47:54.242Z,2.30
2022-08-12T06:48:54.239Z,2.60
2022-08-12T06:49:54.252Z,2.60
2022-08-12T06:50:54.241Z,2.40
2022-08-12T06:51:56.805Z,2.80
2022-08-12T06:52:54.191Z,2.50
2022-08-12T06:53:54.180Z,2.20
2022-08-12T06:54:54.193Z,2.40
2022-08-12T06:55:58.219Z,2.80
2022-08-12T06:58:01.729Z,2.50
2022-08-12T06:58:07.325Z,2.80
2022-08-12T06:58:55.125Z,2.90
2022-08-12T06:59:54.134Z,3.20
2022-08-12T07:00:54.154Z,2.70
2022-08-12T07:01:54.093Z,2.90
2022-08-12T07:02:54.086Z,2.70
2022-08-12T07:03:54.065Z,3.30
2022-08-12T07:04:54.104Z,2.60
2022-08-12T07:05:54.048Z,2.70
2022-08-12T07:06:54.036Z,2.50
2022-08-12T07:07:54.031Z,2.60
2022-08-12T07:08:54.014Z,2.50
2022-08-12T07:10:04.216Z,2.00
2022-08-12T07:10:55.025Z,2.10
2022-08-12T07:11:53.988Z,2.10
2022-08-12T07:12:53.977Z,2.20
2022-08-12T07:14:11.602Z,2.40
2022-08-12T07:14:54.948Z,2.20
2022-08-12T07:15:53.939Z,2.00
2022-08-12T07:16:53.956Z,1.90
2022-08-12T07:17:53.919Z,2.00
2022-08-12T07:18:53.910Z,2.00
2022-08-12T07:19:54.017Z,2.00
2022-08-12T07:20:53.966Z,2.00
2022-08-12T07:21:59.600Z,2.20
2022-08-12T07:22:54.863Z,1.50
2022-08-12T07:23:53.849Z,1.80
2022-08-12T07:24:53.840Z,2.00
2022-08-12T07:25:58.247Z,2.10
2022-08-12T07:26:53.820Z,1.90
2022-08-12T07:27:53.814Z,1.80
2022-08-12T07:28:53.805Z,2.10
2022-08-12T07:30:02.837Z,1.70
2022-08-12T07:30:54.805Z,1.60
2022-08-12T07:31:53.775Z,1.80
2022-08-12T07:32:54.962Z,1.70
2022-08-12T07:33:53.745Z,1.70
2022-08-12T07:34:53.735Z,1.70
2022-08-12T07:35:53.745Z,1.90
2022-08-12T07:36:53.742Z,2.00
2022-08-12T07:37:53.704Z,1.80
2022-08-12T07:38:53.693Z,1.80
2022-08-12T07:40:00.215Z,1.70
2022-08-12T07:40:54.674Z,1.80
2022-08-12T07:41:53.661Z,1.80
2022-08-12T07:42:53.672Z,1.90
2022-08-12T07:43:53.642Z,1.70
2022-08-12T07:44:53.626Z,1.60
2022-08-12T07:45:53.615Z,2.20
2022-08-12T07:46:53.635Z,1.70
2022-08-12T07:47:53.592Z,1.60
2022-08-12T07:48:53.622Z,1.90
2022-08-12T07:50:04.962Z,1.60
2022-08-12T07:50:54.557Z,1.70
2022-08-12T07:51:53.575Z,2.00
2022-08-12T07:52:53.575Z,1.50
2022-08-12T07:54:00.992Z,1.90
2022-08-12T07:54:54.519Z,1.60
2022-08-12T07:55:53.508Z,1.60
2022-08-12T07:56:53.518Z,1.60
2022-08-12T07:57:53.482Z,1.60
2022-08-12T07:58:53.478Z,1.60
2022-08-12T07:59:55.497Z,1.70
2022-08-12T08:00:53.459Z,1.50
2022-08-12T08:01:53.505Z,1.40
2022-08-12T08:02:53.450Z,1.50
2022-08-12T08:03:53.440Z,1.30
2022-08-12T08:04:53.412Z,1.40
2022-08-12T08:05:53.392Z,1.50
2022-08-12T08:06:53.408Z,1.30
2022-08-12T08:07:53.435Z,1.40
2022-08-12T08:08:53.373Z,1.70
2022-08-12T08:09:58.436Z,1.60
2022-08-12T08:10:54.363Z,1.50
2022-08-12T08:11:53.332Z,1.60
2022-08-12T08:12:53.324Z,1.40
2022-08-12T08:13:53.312Z,1.70
2022-08-12T08:14:53.303Z,1.40
2022-08-12T08:16:03.063Z,1.50
2022-08-12T08:16:54.283Z,1.60
2022-08-12T08:17:53.266Z,1.40
2022-08-12T08:18:53.256Z,1.60
2022-08-12T08:20:03.690Z,1.60
2022-08-12T08:20:54.236Z,1.40
2022-08-12T08:21:53.225Z,1.50
2022-08-12T08:22:53.412Z,1.50
2022-08-12T08:23:55.858Z,1.30
2022-08-12T08:24:53.237Z,1.40
2022-08-12T08:25:54.156Z,1.30
2022-08-12T08:26:53.176Z,1.40
2022-08-12T08:27:53.163Z,1.30
2022-08-12T08:28:53.155Z,1.40
2022-08-12T08:29:53.137Z,1.40
2022-08-12T08:30:53.156Z,1.40
2022-08-12T08:31:53.108Z,1.30
2022-08-12T08:32:53.108Z,1.40
2022-08-12T08:34:05.227Z,1.40
2022-08-12T08:34:54.855Z,1.20
2022-08-12T08:35:54.588Z,1.30
2022-08-12T08:36:53.088Z,1.60
2022-08-12T08:37:53.049Z,1.30
2022-08-12T08:38:57.880Z,1.40
2022-08-12T08:39:54.081Z,1.20
2022-08-12T08:40:53.012Z,1.40
2022-08-12T08:42:17.883Z,1.30
2022-08-12T08:42:53.991Z,1.30
2022-08-12T08:43:53.021Z,1.10
2022-08-12T08:44:54.034Z,1.40
2022-08-12T08:45:53.962Z,1.30
2022-08-12T08:46:52.973Z,1.30
2022-08-12T08:47:52.943Z,1.20
2022-08-12T08:48:56.419Z,1.10
2022-08-12T08:49:53.923Z,1.30
2022-08-12T08:51:04.252Z,1.30
2022-08-12T08:51:53.924Z,1.50
2022-08-12T08:52:52.903Z,1.00
2022-08-12T08:53:53.129Z,1.20
2022-08-12T08:54:52.862Z,1.30
2022-08-12T08:56:04.765Z,1.30
2022-08-12T08:56:53.836Z,1.30
2022-08-12T08:57:52.856Z,1.30
2022-08-12T08:58:52.816Z,1.40
2022-08-12T08:59:52.815Z,1.20
2022-08-12T09:00:52.796Z,1.10
2022-08-12T09:01:52.822Z,1.10
2022-08-12T09:02:58.590Z,1.30
2022-08-12T09:05:08.902Z,1.10
2022-08-12T09:05:11.779Z,1.20
2022-08-12T09:06:02.298Z,1.30
2022-08-12T09:06:56.006Z,1.20
2022-08-12T09:08:08.904Z,1.10
2022-08-12T09:08:53.709Z,1.20
2022-08-12T09:10:02.818Z,0.90
2022-08-12T09:10:59.188Z,1.20
2022-08-12T09:12:55.095Z,1.20
2022-08-12T09:14:10.654Z,1.10
2022-08-12T09:14:53.651Z,1.20
2022-08-12T09:15:56.182Z,0.90
2022-08-12T09:16:53.632Z,1.20
2022-08-12T09:17:52.720Z,1.10
2022-08-12T09:18:53.283Z,1.00
2022-08-12T09:20:53.588Z,1.00
2022-08-12T09:22:53.797Z,1.00
2022-08-12T09:24:00.491Z,0.90
2022-08-12T09:24:53.554Z,1.10
2022-08-12T09:25:52.563Z,1.00
2022-08-12T09:26:52.533Z,0.80
2022-08-12T09:28:03.923Z,1.00
2022-08-12T09:28:54.037Z,1.10
2022-08-12T09:30:11.582Z,0.80
2022-08-12T09:30:53.487Z,0.90
2022-08-12T09:32:06.694Z,0.80
2022-08-12T09:33:03.887Z,1.50
2022-08-12T09:34:28.727Z,0.90
2022-08-12T09:34:53.450Z,1.00
2022-08-12T09:36:04.711Z,1.00
2022-08-12T09:37:00.676Z,0.70
2022-08-12T09:37:57.569Z,0.80
2022-08-12T09:38:59.173Z,1.10
2022-08-12T09:40:07.902Z,1.10
2022-08-12T09:40:57.941Z,0.80
2022-08-12T09:42:35.023Z,0.90
2022-08-12T09:43:11.647Z,0.60
2022-08-12T09:44:00.822Z,0.70
2022-08-12T09:45:03.637Z,0.70
2022-08-12T09:46:14.286Z,0.70
2022-08-12T09:46:53.357Z,0.70
2022-08-12T09:47:57.087Z,0.90
2022-08-12T09:48:56.804Z,0.70
2022-08-12T09:49:58.727Z,0.70
2022-08-12T09:50:55.038Z,0.90
2022-08-12T09:51:52.271Z,0.90
2022-08-12T09:52:54.392Z,0.90
2022-08-12T09:54:34.876Z,0.80
2022-08-12T09:54:59.816Z,0.80
2022-08-12T09:56:03.761Z,0.90
2022-08-12T09:57:03.118Z,0.90
2022-08-12T09:58:45.290Z,1.00
2022-08-12T09:58:59.655Z,0.90
2022-08-12T10:00:13.374Z,1.00
2022-08-12T10:00:53.587Z,0.80
2022-08-12T10:02:45.070Z,0.80
2022-08-12T10:02:54.212Z,0.80
2022-08-12T10:04:03.438Z,0.80
2022-08-12T10:04:53.220Z,1.00
2022-08-12T10:06:20.402Z,0.90
2022-08-12T10:06:55.200Z,0.90
2022-08-12T10:07:52.097Z,0.90
2022-08-12T10:08:52.530Z,0.90
2022-08-12T10:09:58.051Z,0.80
2022-08-12T10:10:53.058Z,0.70
2022-08-12T10:12:11.605Z,1.00
2022-08-12T10:13:07.245Z,1.00
2022-08-12T10:13:53.049Z,0.80
2022-08-12T10:14:53.981Z,0.80
2022-08-12T10:16:02.373Z,0.90
2022-08-12T10:16:52.999Z,1.10
2022-08-12T10:17:56.741Z,0.80
2022-08-12T10:18:52.981Z,0.90
2022-08-12T10:19:52.748Z,1.00
2022-08-12T10:20:51.997Z,0.80
2022-08-12T10:21:56.823Z,0.70
2022-08-12T10:22:53.189Z,0.90
2022-08-12T10:23:56.748Z,0.90
2022-08-12T10:24:53.384Z,0.80
2022-08-12T10:26:37.278Z,0.80
2022-08-12T10:26:52.894Z,0.80
2022-08-12T10:28:04.705Z,0.80
2022-08-12T10:29:02.062Z,0.90
2022-08-12T10:30:37.105Z,1.00
2022-08-12T10:30:58.950Z,0.80
2022-08-12T10:32:20.690Z,0.90
2022-08-12T10:32:56.458Z,0.80
2022-08-12T10:34:05.154Z,0.80
2022-08-12T10:34:53.423Z,0.80
2022-08-12T10:35:52.575Z,0.70
2022-08-12T10:36:51.910Z,0.80
2022-08-12T10:38:33.599Z,1.10
2022-08-12T10:38:52.804Z,0.90
2022-08-12T10:40:01.000Z,1.00
2022-08-12T10:40:52.776Z,0.90
2022-08-12T10:41:57.905Z,0.80
2022-08-12T10:42:52.731Z,0.80
2022-08-12T10:43:55.422Z,1.00
2022-08-12T10:44:51.728Z,0.90
2022-08-12T10:45:51.704Z,0.80
2022-08-12T10:46:59.472Z,0.70
2022-08-12T10:48:19.809Z,1.00
2022-08-12T10:48:58.072Z,0.90
2022-08-12T10:50:03.661Z,0.90
2022-08-12T10:51:02.060Z,0.80
2022-08-12T10:52:33.293Z,0.80
2022-08-12T10:52:52.784Z,0.90
2022-08-12T10:53:52.543Z,0.70
2022-08-12T10:54:51.608Z,1.00
2022-08-12T10:55:56.237Z,0.80
2022-08-12T10:56:52.613Z,1.00
2022-08-12T10:58:14.231Z,1.00
2022-08-12T10:58:52.592Z,0.80
2022-08-12T11:00:35.980Z,0.70
2022-08-12T11:01:26.014Z,1.10
2022-08-12T11:04:23.264Z,1.00
2022-08-12T11:04:26.120Z,1.00
2022-08-12T11:04:35.458Z,0.80
2022-08-12T11:04:53.131Z,0.90
2022-08-12T11:07:07.641Z,0.90
2022-08-12T11:07:09.474Z,0.90
2022-08-12T11:08:36.511Z,1.20
2022-08-12T11:08:52.524Z,1.10
2022-08-12T11:09:59.910Z,0.80
2022-08-12T11:10:52.455Z,0.90
2022-08-12T11:12:35.967Z,1.10
2022-08-12T11:12:58.958Z,0.90
2022-08-12T11:13:52.420Z,1.00
2022-08-12T11:14:51.636Z,0.90
2022-08-12T11:16:03.989Z,0.90
2022-08-12T11:17:34.585Z,1.00
2022-08-12T11:17:54.824Z,0.90
2022-08-12T11:18:55.251Z,0.70
2022-08-12T11:19:51.402Z,0.80
2022-08-12T11:20:52.191Z,0.90
2022-08-12T11:21:58.031Z,0.70
2022-08-12T11:22:58.650Z,0.90
2022-08-12T11:23:53.560Z,0.90
2022-08-12T11:24:53.655Z,1.10
2022-08-12T11:25:57.701Z,0.70
2022-08-12T11:26:52.322Z,0.90
2022-08-12T11:27:51.480Z,1.00
2022-08-12T11:28:59.225Z,1.00
2022-08-12T11:30:05.807Z,0.90
2022-08-12T11:30:53.680Z,1.00
2022-08-12T11:32:01.796Z,0.90
2022-08-12T11:32:52.242Z,0.90
2022-08-12T11:34:04.821Z,0.80
2022-08-12T11:34:54.890Z,1.10
2022-08-12T11:35:54.074Z,0.90
2022-08-12T11:36:53.492Z,1.00
2022-08-12T11:37:58.168Z,0.90
2022-08-12T11:38:52.148Z,0.90
2022-08-12T11:40:52.156Z,1.00
2022-08-12T11:41:51.149Z,0.80
2022-08-12T11:42:51.875Z,0.90
2022-08-12T11:43:58.858Z,1.00
2022-08-12T11:44:52.099Z,1.00
2022-08-12T11:45:52.807Z,0.90
2022-08-12T11:46:52.841Z,1.00
2022-08-12T11:47:51.080Z,0.90
2022-08-12T11:48:52.732Z,0.90
2022-08-12T11:49:51.908Z,1.00
2022-08-12T11:50:51.072Z,1.20
2022-08-12T11:51:57.607Z,0.90
2022-08-12T11:52:55.887Z,1.00
2022-08-12T11:53:57.233Z,1.00
2022-08-12T11:54:54.132Z,0.90
2022-08-12T11:55:51.017Z,1.10
2022-08-12T11:56:52.426Z,1.20
2022-08-12T11:58:17.240Z,1.00
2022-08-12T12:02:01.174Z,0.90
2022-08-12T12:02:52.011Z,1.00
2022-08-12T12:03:50.952Z,1.10
2022-08-12T12:04:53.111Z,1.00
2022-08-12T12:05:50.933Z,0.90
2022-08-12T12:06:53.148Z,1.10
2022-08-12T12:08:37.727Z,1.00
2022-08-12T12:08:53.789Z,0.90
2022-08-12T12:09:52.421Z,1.00
2022-08-12T12:10:50.880Z,1.00
2022-08-12T12:11:50.883Z,1.10
2022-08-12T12:12:51.039Z,1.10
2022-08-12T12:14:06.342Z,1.10
2022-08-12T12:14:54.603Z,1.30
2022-08-12T12:15:50.850Z,1.00
2022-08-12T12:16:50.894Z,1.10
2022-08-12T12:17:51.255Z,1.00
2022-08-12T12:18:51.815Z,1.10
2022-08-12T12:19:50.819Z,0.90
2022-08-12T12:20:50.805Z,0.90
2022-08-12T12:21:50.799Z,0.90
2022-08-12T12:22:50.809Z,0.90
2022-08-12T12:23:50.788Z,1.00
2022-08-12T12:24:50.773Z,1.00
2022-08-12T12:26:07.512Z,1.00
2022-08-12T12:26:59.836Z,1.00
2022-08-12T12:28:03.950Z,1.00
2022-08-12T12:28:53.580Z,0.80
2022-08-12T12:30:19.198Z,0.80
2022-08-12T12:30:54.906Z,1.00
2022-08-12T12:32:10.365Z,1.10
2022-08-12T12:32:53.375Z,0.90
2022-08-12T12:33:58.318Z,1.00
2022-08-12T12:35:17.892Z,1.10
2022-08-12T12:36:18.269Z,1.00
2022-08-12T12:36:54.770Z,1.10
2022-08-12T12:38:05.102Z,1.10
2022-08-12T12:38:51.649Z,1.30
2022-08-12T12:39:55.184Z,0.90
2022-08-12T12:40:51.638Z,0.90
2022-08-12T12:42:55.307Z,1.30
2022-08-12T12:42:55.550Z,0.90
2022-08-12T12:44:04.038Z,0.90
2022-08-12T12:44:53.715Z,1.30
2022-08-12T12:45:50.601Z,1.10
2022-08-12T12:46:50.603Z,0.90
2022-08-12T12:47:50.582Z,1.20
2022-08-12T12:48:50.594Z,1.10
2022-08-12T12:49:53.593Z,0.80
2022-08-12T12:50:51.778Z,0.90
2022-08-12T12:52:18.556Z,0.90
2022-08-12T12:52:51.537Z,0.70
2022-08-12T12:54:08.488Z,0.80
2022-08-12T12:54:51.546Z,0.90
2022-08-12T12:55:50.515Z,1.00
2022-08-12T12:56:50.515Z,0.90
2022-08-12T12:58:00.398Z,1.00
2022-08-12T12:58:51.489Z,1.00
2022-08-12T12:59:56.300Z,0.80
2022-08-12T13:00:51.559Z,1.00
2022-08-12T13:01:50.498Z,1.10
2022-08-12T13:02:53.663Z,0.90
2022-08-12T13:03:50.444Z,0.80
2022-08-12T13:04:50.443Z,0.80
2022-08-12T13:05:53.619Z,0.90
2022-08-12T13:06:50.424Z,0.70
2022-08-12T13:07:55.153Z,0.90
2022-08-12T13:08:51.403Z,1.10
2022-08-12T13:09:50.394Z,0.90
2022-08-12T13:10:51.150Z,0.80
2022-08-12T13:11:53.255Z,1.00
2022-08-12T13:12:50.377Z,0.90
2022-08-12T13:14:06.973Z,0.80
2022-08-12T13:14:51.354Z,0.90
2022-08-12T13:15:50.349Z,1.00
2022-08-12T13:16:50.366Z,0.90
2022-08-12T13:18:03.279Z,1.00
2022-08-12T13:18:51.319Z,0.90
2022-08-12T13:19:50.308Z,0.90
2022-08-12T13:20:50.308Z,1.00
2022-08-12T13:21:51.311Z,1.10
2022-08-12T13:22:50.291Z,0.80
2022-08-12T13:23:50.299Z,0.90
2022-08-12T13:24:51.855Z,1.00
2022-08-12T13:25:50.261Z,1.00